Presque Isle, ME

4:13 AM EDT on August 26, 2016 (GMT -0400)
Northern Maine Regional At Presque Isle | | Change Station

Elev 479 ft 46.69 °N, 68.04 °W | Updated 17 minutes ago

Mostly Cloudy
Mostly Cloudy
68 °F
Feels Like 68 °F
N
4
Wind Variable Wind from SW

Today
High -- | Low -- °F
--% Chance of Precip.
Yesterday
High -- | Low -- °F
Precip. -- in
Pressure 29.96 in
Visibility 9.0 miles
Clouds Mostly Cloudy 2900 ft
Dew Point 67 °F
Humidity 96%
Rainfall 0.00 in
Snow Depth Not available.
5:44 AM 7:21 PM
Last Quarter, 37% visible
METAR KPQI 260756Z AUTO 23003KT 9SM BKN029 20/19 A2986 RMK AO2 SLP145 T02000194
Pressure 29.96 in
Visibility 9.0 miles
Clouds Mostly Cloudy 2900 ft
Dew Point 67 °F
Humidity 96%
Rainfall 0.00 in
Snow Depth Not available.
5:44 AM 7:21 PM
Last Quarter, 37% visible
METAR KPQI 260756Z AUTO 23003KT 9SM BKN029 20/19 A2986 RMK AO2 SLP145 T02000194

10-Day Weather Forecast

Almanac

Astronomy

Aug. 26, 2016 Rise Set
Actual Time
Civil Twilight
Nautical Twilight
Astronomical Twilight
Moon
Length of Visible Light
Length of Day
Tomorrow will be .
, % of the Moon is Illuminated

Today's Extremes

State Highs State Lows

Community

WunderPhotos

Upload Photos

1,935,062 photos uploaded!

WunderBlog® & News

Nearby

Air Quality

  Air Quality AQ Index Pollutant
Not available.

Snow Depth

Station Depth Elevation

Earthquake Activity

City Distance Mag. Time & Date
Minimum magnitude displayed is 2.5.

Coastal Water Temperatures

Place Temperature

Stations

Nearby Weather Stations

Station Location Temp. Windchill Dew Point Humidity Wind Precip. Elev Updated Type
                   

Watches & Warnings

There are currently no watches in effect.